createdAt,value
2017-04-24T00:00:35.146Z,82.09
2017-04-24T00:01:36.561Z,82.56
2017-04-24T00:02:37.975Z,82.47
2017-04-24T00:03:39.389Z,82.94
2017-04-24T00:04:40.802Z,83.47
2017-04-24T00:05:42.212Z,84.99
2017-04-24T00:06:43.635Z,84.70
2017-04-24T00:07:45.050Z,85.17
2017-04-24T00:08:46.473Z,84.89
2017-04-24T00:09:47.887Z,85.08
2017-04-24T00:10:49.298Z,85.08
2017-04-24T00:11:50.714Z,85.08
2017-04-24T00:12:52.159Z,83.94
2017-04-24T00:13:53.576Z,84.42
2017-04-24T00:14:54.992Z,84.61
2017-04-24T00:15:56.484Z,84.70
2017-04-24T00:16:57.896Z,84.89
2017-04-24T00:17:59.320Z,84.70
2017-04-24T00:19:00.734Z,84.51
2017-04-24T00:20:02.269Z,84.32
2017-04-24T00:21:03.677Z,83.94
2017-04-24T00:22:05.097Z,83.00
2017-04-24T00:23:06.517Z,83.66
2017-04-24T00:24:08.039Z,82.90
2017-04-24T00:25:09.445Z,83.47
2017-04-24T00:26:10.858Z,82.33
2017-04-24T00:27:12.275Z,82.05
2017-04-24T00:28:13.708Z,83.09
2017-04-24T00:29:15.128Z,84.04
2017-04-24T00:30:16.537Z,84.51
2017-04-24T00:31:17.952Z,84.13
2017-04-24T00:32:19.371Z,84.42
2017-04-24T00:33:20.789Z,84.51
2017-04-24T00:34:22.205Z,84.32
2017-04-24T00:35:23.616Z,84.32
2017-04-24T00:36:25.027Z,85.08
2017-04-24T00:37:26.438Z,85.17
2017-04-24T00:38:27.851Z,87.02
2017-04-24T00:39:29.267Z,87.21
2017-04-24T00:40:30.683Z,86.93
2017-04-24T00:41:32.097Z,86.60
2017-04-24T00:42:33.506Z,85.84
2017-04-24T00:43:34.918Z,84.51
2017-04-24T00:44:36.330Z,83.47
2017-04-24T00:45:37.746Z,83.09
2017-04-24T00:46:39.157Z,84.32
2017-04-24T00:47:40.567Z,84.94
2017-04-24T00:48:41.985Z,86.08
2017-04-24T00:49:43.396Z,85.99
2017-04-24T00:50:44.804Z,86.08
2017-04-24T00:51:46.220Z,86.27
2017-04-24T00:52:47.635Z,86.46
2017-04-24T00:53:49.052Z,86.08
2017-04-24T00:54:50.460Z,85.61
2017-04-24T00:55:51.874Z,84.94
2017-04-24T00:56:53.290Z,84.51
2017-04-24T00:57:54.708Z,83.47
2017-04-24T00:58:56.159Z,82.71
2017-04-24T00:59:57.579Z,81.76
2017-04-24T01:00:58.989Z,81.76
2017-04-24T01:02:00.409Z,82.33
2017-04-24T01:03:01.838Z,83.66
2017-04-24T01:04:03.249Z,84.32
2017-04-24T01:05:04.663Z,84.66
2017-04-24T01:06:06.073Z,85.89
2017-04-24T01:07:07.484Z,87.12
2017-04-24T01:08:08.900Z,87.50
2017-04-24T01:09:10.314Z,87.31
2017-04-24T01:10:11.724Z,87.02
2017-04-24T01:11:13.128Z,86.74
2017-04-24T01:12:14.540Z,86.93
2017-04-24T01:13:15.959Z,87.40
2017-04-24T01:14:17.370Z,87.40
2017-04-24T01:15:18.787Z,87.31
2017-04-24T01:16:20.200Z,87.21
2017-04-24T01:17:21.614Z,87.02
2017-04-24T01:18:23.026Z,87.21
2017-04-24T01:19:24.437Z,87.50
2017-04-24T01:20:25.855Z,88.07
2017-04-24T01:21:27.266Z,88.35
2017-04-24T01:22:28.675Z,89.01
2017-04-24T01:23:30.091Z,89.01
2017-04-24T01:24:31.504Z,89.30
2017-04-24T01:25:32.922Z,88.17
2017-04-24T01:26:34.335Z,88.17
2017-04-24T01:27:35.737Z,88.64
2017-04-24T01:28:37.150Z,88.45
2017-04-24T01:29:38.574Z,88.45
2017-04-24T01:30:39.993Z,88.92
2017-04-24T01:31:41.407Z,89.01
2017-04-24T01:32:42.818Z,88.87
2017-04-24T01:33:44.306Z,89.16
2017-04-24T01:34:45.734Z,89.58
2017-04-24T01:35:47.148Z,89.73
2017-04-24T01:36:48.625Z,89.73
2017-04-24T01:37:50.052Z,89.77
2017-04-24T01:38:51.460Z,89.77
2017-04-24T01:39:52.884Z,89.68
2017-04-24T01:40:54.294Z,89.49
2017-04-24T01:41:55.705Z,89.11
2017-04-24T01:42:57.123Z,88.82
2017-04-24T01:43:58.540Z,88.68
2017-04-24T01:44:59.959Z,89.01
2017-04-24T01:46:01.377Z,88.64
2017-04-24T01:47:02.778Z,88.07
2017-04-24T01:48:04.190Z,87.98
2017-04-24T01:49:05.601Z,87.21
2017-04-24T01:50:07.017Z,86.93
2017-04-24T01:51:08.425Z,87.02
2017-04-24T01:52:09.831Z,86.08
2017-04-24T01:53:11.244Z,86.08
2017-04-24T01:54:12.658Z,86.55
2017-04-24T01:55:14.076Z,86.03
2017-04-24T01:56:15.488Z,85.84
2017-04-24T01:57:16.900Z,84.32
2017-04-24T01:58:18.316Z,83.00
2017-04-24T01:59:19.731Z,83.47
2017-04-24T02:00:21.146Z,83.66
2017-04-24T02:01:22.549Z,83.24
2017-04-24T02:02:23.965Z,84.47
2017-04-24T02:03:25.376Z,84.19
2017-04-24T02:04:26.790Z,83.81
2017-04-24T02:05:28.199Z,84.47
2017-04-24T02:06:29.609Z,84.66
2017-04-24T02:07:31.039Z,84.37
2017-04-24T02:08:32.451Z,84.00
2017-04-24T02:09:33.865Z,84.51
2017-04-24T02:10:35.277Z,84.61
2017-04-24T02:11:36.688Z,85.23
2017-04-24T02:12:38.110Z,85.13
2017-04-24T02:13:39.521Z,85.17
2017-04-24T02:14:40.939Z,84.47
2017-04-24T02:15:42.352Z,85.13
2017-04-24T02:16:43.773Z,84.32
2017-04-24T02:17:45.178Z,83.37
2017-04-24T02:18:46.595Z,83.85
2017-04-24T02:19:48.013Z,83.85
2017-04-24T02:20:49.426Z,83.37
2017-04-24T02:21:50.835Z,82.90
2017-04-24T02:22:52.251Z,82.90
2017-04-24T02:23:53.659Z,84.23
2017-04-24T02:24:55.072Z,84.23
2017-04-24T02:25:56.482Z,83.85
2017-04-24T02:26:57.894Z,84.85
2017-04-24T02:27:59.310Z,84.89
2017-04-24T02:29:00.720Z,84.80
2017-04-24T02:30:02.145Z,84.70
2017-04-24T02:31:03.563Z,84.32
2017-04-24T02:32:04.971Z,82.81
2017-04-24T02:33:06.384Z,83.18
2017-04-24T02:34:07.794Z,82.43
2017-04-24T02:35:09.209Z,83.56
2017-04-24T02:36:10.614Z,84.09
2017-04-24T02:37:12.026Z,85.23
2017-04-24T02:38:13.444Z,84.42
2017-04-24T02:39:14.855Z,84.00
2017-04-24T02:40:16.271Z,85.13
2017-04-24T02:41:17.683Z,85.80
2017-04-24T02:42:19.092Z,86.27
2017-04-24T02:43:20.506Z,85.99
2017-04-24T02:44:21.959Z,86.08
2017-04-24T02:45:23.374Z,86.46
2017-04-24T02:46:24.780Z,87.02
2017-04-24T02:47:26.207Z,86.36
2017-04-24T02:48:27.654Z,86.93
2017-04-24T02:49:29.063Z,87.46
2017-04-24T02:50:30.476Z,87.69
2017-04-24T02:51:31.882Z,87.36
2017-04-24T02:52:33.291Z,87.84
2017-04-24T02:53:34.704Z,88.78
2017-04-24T02:54:36.114Z,89.44
2017-04-24T02:55:37.525Z,89.54
2017-04-24T02:56:38.942Z,87.93
2017-04-24T02:57:40.375Z,87.02
2017-04-24T02:58:41.766Z,86.36
2017-04-24T02:59:43.177Z,85.70
2017-04-24T03:00:44.596Z,84.37
2017-04-24T03:01:46.008Z,84.28
2017-04-24T03:02:47.418Z,83.71
2017-04-24T03:03:48.823Z,83.94
2017-04-24T03:04:50.234Z,82.95
2017-04-24T03:05:51.648Z,83.33
2017-04-24T03:06:53.054Z,83.62
2017-04-24T03:07:54.479Z,83.71
2017-04-24T03:08:55.892Z,84.28
2017-04-24T03:09:57.298Z,84.94
2017-04-24T03:10:58.708Z,85.38
2017-04-24T03:12:00.124Z,86.27
2017-04-24T03:13:01.534Z,85.94
2017-04-24T03:14:02.943Z,86.70
2017-04-24T03:15:04.357Z,86.18
2017-04-24T03:16:05.775Z,85.23
2017-04-24T03:17:07.189Z,85.51
2017-04-24T03:18:08.609Z,85.42
2017-04-24T03:19:10.024Z,84.47
2017-04-24T03:20:11.429Z,84.28
2017-04-24T03:21:12.842Z,84.94
2017-04-24T03:22:14.250Z,83.62
2017-04-24T03:23:15.665Z,83.14
2017-04-24T03:24:17.079Z,84.75
2017-04-24T03:25:18.494Z,85.80
2017-04-24T03:26:19.907Z,85.70
2017-04-24T03:27:21.321Z,86.18
2017-04-24T03:28:22.730Z,84.28
2017-04-24T03:29:24.143Z,83.43
2017-04-24T03:30:25.553Z,84.19
2017-04-24T03:31:26.963Z,84.28
2017-04-24T03:32:28.375Z,84.09
2017-04-24T03:33:29.785Z,84.47
2017-04-24T03:34:31.192Z,84.94
2017-04-24T03:35:32.606Z,84.94
2017-04-24T03:36:34.015Z,84.00
2017-04-24T03:37:35.428Z,83.33
2017-04-24T03:38:36.832Z,83.90
2017-04-24T03:39:38.265Z,82.95
2017-04-24T03:40:39.657Z,83.52
2017-04-24T03:41:41.069Z,84.19
2017-04-24T03:42:42.500Z,85.51
2017-04-24T03:43:43.916Z,86.27
2017-04-24T03:44:45.324Z,85.23
2017-04-24T03:45:46.749Z,84.19
2017-04-24T03:46:48.160Z,86.08
2017-04-24T03:47:49.573Z,86.08
2017-04-24T03:48:50.991Z,85.23
2017-04-24T03:49:52.451Z,83.81
2017-04-24T03:50:53.866Z,83.62
2017-04-24T03:51:55.282Z,84.28
2017-04-24T03:52:56.694Z,85.51
2017-04-24T03:53:58.182Z,86.55
2017-04-24T03:54:59.592Z,85.42
2017-04-24T03:56:01.007Z,84.66
2017-04-24T03:57:02.427Z,83.90
2017-04-24T03:58:03.838Z,82.95
2017-04-24T03:59:05.247Z,83.90
2017-04-24T04:00:06.655Z,83.05
2017-04-24T04:01:08.065Z,81.92
2017-04-24T04:02:09.475Z,82.67
2017-04-24T04:03:10.885Z,82.95
2017-04-24T04:04:12.305Z,83.05
2017-04-24T04:05:13.718Z,83.90
2017-04-24T04:06:15.131Z,84.00
2017-04-24T04:07:16.548Z,83.33
2017-04-24T04:08:17.961Z,83.05
2017-04-24T04:09:19.371Z,83.90
2017-04-24T04:10:20.782Z,84.94
2017-04-24T04:11:22.197Z,85.61
2017-04-24T04:12:23.609Z,86.93
2017-04-24T04:13:25.027Z,88.26
2017-04-24T04:14:26.444Z,88.26
2017-04-24T04:15:27.861Z,86.74
2017-04-24T04:16:29.277Z,86.08
2017-04-24T04:17:30.690Z,86.93
2017-04-24T04:18:32.101Z,87.31
2017-04-24T04:19:33.517Z,86.74
2017-04-24T04:20:34.927Z,86.22
2017-04-24T04:21:36.338Z,85.89
2017-04-24T04:22:37.754Z,86.55
2017-04-24T04:23:39.181Z,87.40
2017-04-24T04:24:40.611Z,87.31
2017-04-24T04:25:42.028Z,88.26
2017-04-24T04:26:43.443Z,87.78
2017-04-24T04:27:44.856Z,87.73
2017-04-24T04:28:46.272Z,87.12
2017-04-24T04:29:47.703Z,87.69
2017-04-24T04:30:49.111Z,88.02
2017-04-24T04:31:50.524Z,86.98
2017-04-24T04:32:51.943Z,87.07
2017-04-24T04:33:53.359Z,87.35
2017-04-24T04:34:54.770Z,86.98
2017-04-24T04:35:56.184Z,86.69
2017-04-24T04:36:57.605Z,86.79
2017-04-24T04:37:59.017Z,86.50
2017-04-24T04:39:00.443Z,86.03
2017-04-24T04:40:01.861Z,85.74
2017-04-24T04:41:03.281Z,85.46
2017-04-24T04:42:04.694Z,85.22
2017-04-24T04:43:06.109Z,84.80
2017-04-24T04:44:07.526Z,84.36
2017-04-24T04:45:08.949Z,84.36
2017-04-24T04:46:10.367Z,85.27
2017-04-24T04:47:11.776Z,84.36
2017-04-24T04:48:13.206Z,84.46
2017-04-24T04:49:14.618Z,84.27
2017-04-24T04:50:16.032Z,84.36
2017-04-24T04:51:17.458Z,83.70
2017-04-24T04:52:18.870Z,83.61
2017-04-24T04:53:20.289Z,84.17
2017-04-24T04:54:21.702Z,84.55
2017-04-24T04:55:23.123Z,84.36
2017-04-24T04:56:24.538Z,84.36
2017-04-24T04:57:25.953Z,84.84
2017-04-24T04:58:27.375Z,84.17
2017-04-24T04:59:28.794Z,84.74
2017-04-24T05:00:30.211Z,84.55
2017-04-24T05:01:31.625Z,84.27
2017-04-24T05:02:33.041Z,84.08
2017-04-24T05:03:34.491Z,84.55
2017-04-24T05:04:35.908Z,84.55
2017-04-24T05:05:37.323Z,84.84
2017-04-24T05:06:38.742Z,84.36
2017-04-24T05:07:40.258Z,83.61
2017-04-24T05:08:41.677Z,83.98
2017-04-24T05:09:43.099Z,83.98
2017-04-24T05:10:44.556Z,83.42
2017-04-24T05:11:46.050Z,83.98
2017-04-24T05:12:47.466Z,83.51
2017-04-24T05:13:48.879Z,83.98
2017-04-24T05:14:50.295Z,83.42
2017-04-24T05:15:51.707Z,84.27
2017-04-24T05:16:53.135Z,83.84
2017-04-24T05:17:54.550Z,83.55
2017-04-24T05:18:55.970Z,83.74
2017-04-24T05:19:57.384Z,83.65
2017-04-24T05:20:58.808Z,83.84
2017-04-24T05:22:00.221Z,83.84
2017-04-24T05:23:01.635Z,83.46
2017-04-24T05:24:03.051Z,82.98
2017-04-24T05:25:04.470Z,83.08
2017-04-24T05:26:05.879Z,83.17
2017-04-24T05:27:07.298Z,82.98
2017-04-24T05:28:08.715Z,81.56
2017-04-24T05:29:10.136Z,81.18
2017-04-24T05:30:11.552Z,81.37
2017-04-24T05:31:12.971Z,81.94
2017-04-24T05:32:14.386Z,82.51
2017-04-24T05:33:15.805Z,82.23
2017-04-24T05:34:17.222Z,81.66
2017-04-24T05:35:18.637Z,82.13
2017-04-24T05:36:20.054Z,81.32
2017-04-24T05:37:21.467Z,80.65
2017-04-24T05:38:22.878Z,81.51
2017-04-24T05:39:24.294Z,80.46
2017-04-24T05:40:25.720Z,79.71
2017-04-24T05:41:27.133Z,80.65
2017-04-24T05:42:28.553Z,80.37
2017-04-24T05:43:29.971Z,79.80
2017-04-24T05:44:31.392Z,78.38
2017-04-24T05:45:32.810Z,79.14
2017-04-24T05:46:34.224Z,78.56
2017-04-24T05:47:35.638Z,78.80
2017-04-24T05:48:37.057Z,78.42
2017-04-24T05:49:38.494Z,79.08
2017-04-24T05:50:39.912Z,79.17
2017-04-24T05:51:41.327Z,78.99
2017-04-24T05:52:42.743Z,79.94
2017-04-24T05:53:44.171Z,78.89
2017-04-24T05:54:45.582Z,77.94
2017-04-24T05:55:47.002Z,78.61
2017-04-24T05:56:48.424Z,78.13
2017-04-24T05:57:49.846Z,77.28
2017-04-24T05:58:51.272Z,76.99
2017-04-24T05:59:52.687Z,76.90
2017-04-24T06:00:54.106Z,76.14
2017-04-24T06:01:55.523Z,76.23
2017-04-24T06:02:56.940Z,76.99
2017-04-24T06:03:58.355Z,77.47
2017-04-24T06:04:59.768Z,76.23
2017-04-24T06:06:01.191Z,75.76
2017-04-24T06:07:02.614Z,76.27
2017-04-24T06:08:04.040Z,76.93
2017-04-24T06:09:05.458Z,76.08
2017-04-24T06:10:06.878Z,75.70
2017-04-24T06:11:08.298Z,75.60
2017-04-24T06:12:09.716Z,73.99
2017-04-24T06:13:11.144Z,73.61
2017-04-24T06:14:12.555Z,73.14
2017-04-24T06:15:13.977Z,74.85
2017-04-24T06:16:15.393Z,74.08
2017-04-24T06:17:16.812Z,73.99
2017-04-24T06:18:18.238Z,73.23
2017-04-24T06:19:19.666Z,73.33
2017-04-24T06:20:21.076Z,73.04
2017-04-24T06:21:22.498Z,73.42
2017-04-24T06:22:23.916Z,74.56
2017-04-24T06:23:25.339Z,74.47
2017-04-24T06:24:26.764Z,73.90
2017-04-24T06:25:28.179Z,73.93
2017-04-24T06:26:29.597Z,72.60
2017-04-24T06:27:31.024Z,73.36
2017-04-24T06:28:32.443Z,72.99
2017-04-24T06:29:33.867Z,71.75
2017-04-24T06:30:35.289Z,71.75
2017-04-24T06:31:36.707Z,72.13
2017-04-24T06:32:38.129Z,71.94
2017-04-24T06:33:39.543Z,72.70
2017-04-24T06:34:40.961Z,71.84
2017-04-24T06:35:42.399Z,69.21
2017-04-24T06:36:43.885Z,69.50
2017-04-24T06:37:45.300Z,67.79
2017-04-24T06:38:46.713Z,67.69
2017-04-24T06:39:48.132Z,68.07
2017-04-24T06:40:49.549Z,67.79
2017-04-24T06:41:50.974Z,68.74
2017-04-24T06:42:52.393Z,69.02
2017-04-24T06:43:53.810Z,67.88
2017-04-24T06:44:55.231Z,69.02
2017-04-24T06:45:57.468Z,69.02
2017-04-24T06:46:58.883Z,69.02
2017-04-24T06:48:00.307Z,67.98
2017-04-24T06:49:01.730Z,67.69
2017-04-24T06:50:03.149Z,68.55
2017-04-24T06:51:04.569Z,67.54
2017-04-24T06:52:05.988Z,68.49
2017-04-24T06:53:07.407Z,66.78
2017-04-24T06:54:08.833Z,66.49
2017-04-24T06:55:10.256Z,67.16
2017-04-24T06:56:11.678Z,66.49
2017-04-24T06:57:13.098Z,66.02
2017-04-24T06:58:14.514Z,65.19
2017-04-24T06:59:15.943Z,66.62
2017-04-24T07:00:17.365Z,67.16
2017-04-24T07:01:18.786Z,64.59
2017-04-24T07:02:20.206Z,65.77
2017-04-24T07:03:21.631Z,64.65
2017-04-24T07:04:23.050Z,62.37
2017-04-24T07:05:24.472Z,61.07
2017-04-24T07:06:25.894Z,59.06
2017-04-24T07:07:27.319Z,58.50
2017-04-24T07:08:28.737Z,58.69
2017-04-24T07:09:30.157Z,57.86
2017-04-24T07:10:31.579Z,57.28
2017-04-24T07:11:32.999Z,58.91
2017-04-24T07:12:34.422Z,58.40
2017-04-24T07:13:35.895Z,57.45
2017-04-24T07:14:37.322Z,58.65
2017-04-24T07:15:38.744Z,59.13
2017-04-24T07:16:40.170Z,60.94
2017-04-24T07:17:41.593Z,60.46
2017-04-24T07:18:43.011Z,59.89
2017-04-24T07:19:44.438Z,60.27
2017-04-24T07:20:45.864Z,60.37
2017-04-24T07:21:47.292Z,61.58
2017-04-24T07:22:48.715Z,62.81
2017-04-24T07:23:50.139Z,62.72
2017-04-24T07:24:51.561Z,61.58
2017-04-24T07:25:52.984Z,61.48
2017-04-24T07:26:54.401Z,62.05
2017-04-24T07:27:55.827Z,62.53
2017-04-24T07:28:57.253Z,62.59
2017-04-24T07:29:58.679Z,62.59
2017-04-24T07:31:00.096Z,62.53
2017-04-24T07:32:01.520Z,61.96
2017-04-24T07:33:02.941Z,62.24
2017-04-24T07:34:04.366Z,61.00
2017-04-24T07:35:05.793Z,59.96
2017-04-24T07:36:07.215Z,60.34
2017-04-24T07:37:08.640Z,60.37
2017-04-24T07:38:10.062Z,61.04
2017-04-24T07:39:11.490Z,60.08
2017-04-24T07:40:12.932Z,61.13
2017-04-24T07:41:14.334Z,59.89
2017-04-24T07:42:15.752Z,58.94
2017-04-24T07:43:17.181Z,59.16
2017-04-24T07:44:18.612Z,59.92
2017-04-24T07:45:20.035Z,58.40
2017-04-24T07:46:21.465Z,58.21
2017-04-24T07:47:22.891Z,58.14
2017-04-24T07:48:24.322Z,59.00
2017-04-24T07:49:25.743Z,58.43
2017-04-24T07:50:27.173Z,57.19
2017-04-24T07:51:28.599Z,55.76
2017-04-24T07:52:30.021Z,56.17
2017-04-24T07:53:31.448Z,54.90
2017-04-24T07:54:32.872Z,54.64
2017-04-24T07:55:34.289Z,55.38
2017-04-24T07:56:35.715Z,53.85
2017-04-24T07:57:37.142Z,52.83
2017-04-24T07:58:38.575Z,52.36
2017-04-24T07:59:39.995Z,50.92
2017-04-24T08:00:41.419Z,52.07
2017-04-24T08:01:42.842Z,51.68
2017-04-24T08:02:44.275Z,52.26
2017-04-24T08:03:45.699Z,53.88
2017-04-24T08:04:47.125Z,53.78
2017-04-24T08:05:48.640Z,53.78
2017-04-24T08:06:50.042Z,53.12
2017-04-24T08:07:51.476Z,53.69
2017-04-24T08:08:52.892Z,50.35
2017-04-24T08:09:54.329Z,51.78
2017-04-24T08:10:55.761Z,51.59
2017-04-24T08:11:57.186Z,50.83
2017-04-24T08:12:58.615Z,50.07
2017-04-24T08:14:00.043Z,51.88
2017-04-24T08:15:01.467Z,50.73
2017-04-24T08:16:02.890Z,52.07
2017-04-24T08:17:04.324Z,53.00
2017-04-24T08:18:05.739Z,51.59
2017-04-24T08:19:07.167Z,50.45
2017-04-24T08:20:08.594Z,51.21
2017-04-24T08:21:10.018Z,53.21
2017-04-24T08:22:11.446Z,50.83
2017-04-24T08:23:12.870Z,50.45
2017-04-24T08:24:14.297Z,51.88
2017-04-24T08:25:15.732Z,53.78
2017-04-24T08:26:17.167Z,51.68
2017-04-24T08:27:18.586Z,51.88
2017-04-24T08:28:20.013Z,50.63
2017-04-24T08:29:21.437Z,52.73
2017-04-24T08:30:22.861Z,49.78
2017-04-24T08:31:24.283Z,49.59
2017-04-24T08:32:25.712Z,49.02
2017-04-24T08:33:27.142Z,49.59
2017-04-24T08:34:28.570Z,50.26
2017-04-24T08:35:30.013Z,48.07
2017-04-24T08:36:31.442Z,49.02
2017-04-24T08:37:32.868Z,48.83
2017-04-24T08:38:34.291Z,49.52
2017-04-24T08:39:35.714Z,49.49
2017-04-24T08:40:37.137Z,48.16
2017-04-24T08:41:38.569Z,47.68
2017-04-24T08:42:40.011Z,48.08
2017-04-24T08:43:41.435Z,47.32
2017-04-24T08:44:42.864Z,47.32
2017-04-24T08:45:44.292Z,47.03
2017-04-24T08:46:45.714Z,47.34
2017-04-24T08:47:47.153Z,47.16
2017-04-24T08:48:48.586Z,48.88
2017-04-24T08:49:50.018Z,49.73
2017-04-24T08:50:51.445Z,48.88
2017-04-24T08:51:52.869Z,47.06
2017-04-24T08:52:54.290Z,46.30
2017-04-24T08:53:55.726Z,46.39
2017-04-24T08:54:57.156Z,46.68
2017-04-24T08:55:58.586Z,47.34
2017-04-24T08:57:00.002Z,45.34
2017-04-24T08:58:01.428Z,45.72
2017-04-24T08:59:02.858Z,46.18
2017-04-24T09:00:04.287Z,46.77
2017-04-24T09:01:05.709Z,47.44
2017-04-24T09:02:07.134Z,45.72
2017-04-24T09:03:08.561Z,46.11
2017-04-24T09:04:09.991Z,47.82
2017-04-24T09:05:11.413Z,46.58
2017-04-24T09:06:12.839Z,46.11
2017-04-24T09:07:14.270Z,46.01
2017-04-24T09:08:15.701Z,46.20
2017-04-24T09:09:17.140Z,48.49
2017-04-24T09:10:18.573Z,47.03
2017-04-24T09:11:20.009Z,48.78
2017-04-24T09:12:21.430Z,46.97
2017-04-24T09:13:22.860Z,47.06
2017-04-24T09:14:24.290Z,47.54
2017-04-24T09:15:25.715Z,49.07
2017-04-24T09:16:27.139Z,48.68
2017-04-24T09:17:28.565Z,46.97
2017-04-24T09:18:29.981Z,47.44
2017-04-24T09:19:31.409Z,46.48
2017-04-24T09:20:32.831Z,48.49
2017-04-24T09:21:34.260Z,49.09
2017-04-24T09:22:35.683Z,48.71
2017-04-24T09:23:37.108Z,48.80
2017-04-24T09:24:38.529Z,48.23
2017-04-24T09:25:39.955Z,45.94
2017-04-24T09:26:41.386Z,46.42
2017-04-24T09:27:42.805Z,47.18
2017-04-24T09:28:44.230Z,46.22
2017-04-24T09:29:45.653Z,46.89
2017-04-24T09:30:47.075Z,47.08
2017-04-24T09:31:48.510Z,48.13
2017-04-24T09:32:49.936Z,48.04
2017-04-24T09:33:51.361Z,47.01
2017-04-24T09:34:52.782Z,46.70
2017-04-24T09:35:54.207Z,47.20
2017-04-24T09:36:55.632Z,46.42
2017-04-24T09:37:57.058Z,45.10
2017-04-24T09:38:58.486Z,46.06
2017-04-24T09:39:59.916Z,46.42
2017-04-24T09:41:01.341Z,46.51
2017-04-24T09:42:02.768Z,47.37
2017-04-24T09:43:04.193Z,45.94
2017-04-24T09:44:05.618Z,46.53
2017-04-24T09:45:07.042Z,47.85
2017-04-24T09:46:08.478Z,46.44
2017-04-24T09:47:09.904Z,46.06
2017-04-24T09:48:11.331Z,47.20
2017-04-24T09:49:12.758Z,48.93
2017-04-24T09:50:14.175Z,48.93
2017-04-24T09:51:15.608Z,47.49
2017-04-24T09:52:17.033Z,46.17
2017-04-24T09:53:18.458Z,45.87
2017-04-24T09:54:19.893Z,46.82
2017-04-24T09:55:21.328Z,49.21
2017-04-24T09:56:22.759Z,50.26
2017-04-24T09:57:24.180Z,48.73
2017-04-24T09:58:25.615Z,47.85
2017-04-24T09:59:27.043Z,48.04
2017-04-24T10:00:28.471Z,48.04
2017-04-24T10:01:29.894Z,48.33
2017-04-24T10:02:31.317Z,47.06
2017-04-24T10:03:32.749Z,47.39
2017-04-24T10:04:34.177Z,47.97
2017-04-24T10:05:35.597Z,47.01
2017-04-24T10:06:37.032Z,46.92
2017-04-24T10:07:38.463Z,47.78
2017-04-24T10:08:39.888Z,47.20
2017-04-24T10:09:41.313Z,47.11
2017-04-24T10:10:42.737Z,47.01
2017-04-24T10:11:44.169Z,46.51
2017-04-24T10:12:45.600Z,47.11
2017-04-24T10:13:47.052Z,48.18
2017-04-24T10:14:48.475Z,48.85
2017-04-24T10:15:49.901Z,46.39
2017-04-24T10:16:51.333Z,45.24
2017-04-24T10:17:52.751Z,46.58
2017-04-24T10:18:54.174Z,44.29
2017-04-24T10:19:55.600Z,45.62
2017-04-24T10:20:57.028Z,45.62
2017-04-24T10:21:58.456Z,46.20
2017-04-24T10:22:59.883Z,46.67
2017-04-24T10:24:01.307Z,43.71
2017-04-24T10:25:02.732Z,46.22
2017-04-24T10:26:04.157Z,44.95
2017-04-24T10:27:05.590Z,43.54
2017-04-24T10:28:07.024Z,44.02
2017-04-24T10:29:08.452Z,44.02
2017-04-24T10:30:09.873Z,43.16
2017-04-24T10:31:11.299Z,44.02
2017-04-24T10:32:12.730Z,45.07
2017-04-24T10:33:14.158Z,44.50
2017-04-24T10:34:15.581Z,43.92
2017-04-24T10:35:17.009Z,44.79
2017-04-24T10:36:18.436Z,42.76
2017-04-24T10:37:19.860Z,45.26
2017-04-24T10:38:21.298Z,44.19
2017-04-24T10:39:22.715Z,44.76
2017-04-24T10:40:24.153Z,45.53
2017-04-24T10:41:25.592Z,46.03
2017-04-24T10:42:27.020Z,45.65
2017-04-24T10:43:28.448Z,46.41
2017-04-24T10:44:29.869Z,45.09
2017-04-24T10:45:31.306Z,45.74
2017-04-24T10:46:32.727Z,44.98
2017-04-24T10:47:34.154Z,43.92
2017-04-24T10:48:35.578Z,44.79
2017-04-24T10:49:37.001Z,44.43
2017-04-24T10:50:38.426Z,43.44
2017-04-24T10:51:39.850Z,44.04
2017-04-24T10:52:41.284Z,44.02
2017-04-24T10:53:42.723Z,43.47
2017-04-24T10:54:44.136Z,44.02
2017-04-24T10:55:45.564Z,44.90
2017-04-24T10:56:46.995Z,44.71
2017-04-24T10:57:48.421Z,44.52
2017-04-24T10:58:49.857Z,44.81
2017-04-24T10:59:51.295Z,42.90
2017-04-24T11:00:52.724Z,43.20
2017-04-24T11:01:54.148Z,42.41
2017-04-24T11:02:55.584Z,43.76
2017-04-24T11:03:57.017Z,44.93
2017-04-24T11:04:58.451Z,44.62
2017-04-24T11:05:59.877Z,43.37
2017-04-24T11:07:01.301Z,42.41
2017-04-24T11:08:02.729Z,43.47
2017-04-24T11:09:04.162Z,43.97
2017-04-24T11:10:05.590Z,42.91
2017-04-24T11:11:07.018Z,43.30
2017-04-24T11:12:08.452Z,43.68
2017-04-24T11:13:09.943Z,43.10
2017-04-24T11:14:11.374Z,41.77
2017-04-24T11:15:12.799Z,41.96
2017-04-24T11:16:14.308Z,41.84
2017-04-24T11:17:15.733Z,42.53
2017-04-24T11:18:17.156Z,41.38
2017-04-24T11:19:18.594Z,41.36
2017-04-24T11:20:20.016Z,42.53
2017-04-24T11:21:21.444Z,42.53
2017-04-24T11:22:22.876Z,42.91
2017-04-24T11:23:24.301Z,43.23
2017-04-24T11:24:25.743Z,43.63
2017-04-24T11:25:27.172Z,43.05
2017-04-24T11:26:28.598Z,40.17
2017-04-24T11:27:30.028Z,40.25
2017-04-24T11:28:31.457Z,40.83
2017-04-24T11:29:32.885Z,42.67
2017-04-24T11:30:34.313Z,40.17
2017-04-24T11:31:35.749Z,41.21
2017-04-24T11:32:37.176Z,42.17
2017-04-24T11:33:38.597Z,42.36
2017-04-24T11:34:40.032Z,41.50
2017-04-24T11:35:41.464Z,40.08
2017-04-24T11:36:42.889Z,39.04
2017-04-24T11:37:44.315Z,39.89
2017-04-24T11:38:45.749Z,39.33
2017-04-24T11:39:47.167Z,40.48
2017-04-24T11:40:48.588Z,39.12
2017-04-24T11:41:50.022Z,40.37
2017-04-24T11:42:51.453Z,41.13
2017-04-24T11:43:52.881Z,40.47
2017-04-24T11:44:54.314Z,41.25
2017-04-24T11:45:55.738Z,40.66
2017-04-24T11:46:57.171Z,39.43
2017-04-24T11:47:58.603Z,39.33
2017-04-24T11:49:00.032Z,38.20
2017-04-24T11:50:01.465Z,38.29
2017-04-24T11:51:02.893Z,38.12
2017-04-24T11:52:04.332Z,37.91
2017-04-24T11:53:05.757Z,37.72
2017-04-24T11:54:07.179Z,38.89
2017-04-24T11:55:08.606Z,36.49
2017-04-24T11:56:10.035Z,36.11
2017-04-24T11:57:11.479Z,36.76
2017-04-24T11:58:12.911Z,37.34
2017-04-24T11:59:14.344Z,39.08
2017-04-24T12:00:15.773Z,38.41
2017-04-24T12:01:17.212Z,37.24
2017-04-24T12:02:18.636Z,38.51
2017-04-24T12:03:20.062Z,37.72
2017-04-24T12:04:21.487Z,37.74
2017-04-24T12:05:22.924Z,37.37
2017-04-24T12:06:24.350Z,36.41
2017-04-24T12:07:25.782Z,37.47
2017-04-24T12:08:27.218Z,37.57
2017-04-24T12:09:28.638Z,36.97
2017-04-24T12:10:30.067Z,36.01
2017-04-24T12:11:31.497Z,36.07
2017-04-24T12:12:32.927Z,37.20
2017-04-24T12:13:34.360Z,37.20
2017-04-24T12:14:35.789Z,39.03
2017-04-24T12:15:37.224Z,38.37
2017-04-24T12:16:38.651Z,37.99
2017-04-24T12:17:40.086Z,39.35
2017-04-24T12:18:41.514Z,38.20
2017-04-24T12:19:42.946Z,36.11
2017-04-24T12:20:44.371Z,38.22
2017-04-24T12:21:45.803Z,36.55
2017-04-24T12:22:47.259Z,37.80
2017-04-24T12:23:48.692Z,38.64
2017-04-24T12:24:50.136Z,39.22
2017-04-24T12:25:51.565Z,37.70
2017-04-24T12:26:52.985Z,38.26
2017-04-24T12:27:54.419Z,37.49
2017-04-24T12:28:55.848Z,39.12
2017-04-24T12:29:57.282Z,39.62
2017-04-24T12:30:58.720Z,40.56
2017-04-24T12:32:00.149Z,38.24
2017-04-24T12:33:01.576Z,40.16
2017-04-24T12:34:03.012Z,39.01
2017-04-24T12:35:04.443Z,39.10
2017-04-24T12:36:05.981Z,40.16
2017-04-24T12:37:07.413Z,38.34
2017-04-24T12:38:08.854Z,37.49
2017-04-24T12:39:10.291Z,38.09
2017-04-24T12:40:11.719Z,38.16
2017-04-24T12:41:13.154Z,39.12
2017-04-24T12:42:14.652Z,38.64
2017-04-24T12:43:16.085Z,39.60
2017-04-24T12:44:17.513Z,39.04
2017-04-24T12:45:18.943Z,37.60
2017-04-24T12:46:20.372Z,39.03
2017-04-24T12:47:21.807Z,39.60
2017-04-24T12:48:23.249Z,37.66
2017-04-24T12:49:24.688Z,38.72
2017-04-24T12:50:26.115Z,38.91
2017-04-24T12:51:27.542Z,40.04
2017-04-24T12:52:28.973Z,40.73
2017-04-24T12:53:30.415Z,38.74
2017-04-24T12:54:31.853Z,37.97
2017-04-24T12:55:33.281Z,38.64
2017-04-24T12:56:34.711Z,39.98
2017-04-24T12:57:36.169Z,39.39
2017-04-24T12:58:37.571Z,39.03
2017-04-24T12:59:39.003Z,41.13
2017-04-24T13:00:40.430Z,41.50
2017-04-24T13:01:41.855Z,40.25
2017-04-24T13:02:43.289Z,39.58
2017-04-24T13:03:44.718Z,40.16
2017-04-24T13:04:46.151Z,41.11
2017-04-24T13:05:47.584Z,39.60
2017-04-24T13:06:49.022Z,38.83
2017-04-24T13:07:50.452Z,39.50
2017-04-24T13:08:51.881Z,39.03
2017-04-24T13:09:53.316Z,40.17
2017-04-24T13:10:54.745Z,40.17